CLK3 weather

Lucknow Airpark
Lucknow, Ontario, Canada

Public forecast

Using degrees Celsius for public forecast. Weather courtesy of forecast.io.

METAR (pilot weather report)

Closest report is Wiarton Airport, 49.6 nm (91.8 km) NNE. Retrieved 2019/07/23 03:00 UTC (59 minutes ago):

CYVV 230300Z 36002KT 15SM FEW250 16/12 A2994 RMK CI1 WND ESTD SLP139 DENSITY ALT 1000FT

TAF (pilot weather forecast)

Forecast is more than 6 hours old.

Closest forecast is Wiarton Airport, 49.6 nm (91.8 km) NNE. Retrieved 2019/07/22 20:00 UTC (8 hours ago):

TAF CYVV 221938Z 2220/2223 05015KT P6SM FEW030 SCT080 BECMG 2222/2223 32013KT RMK NXT FCST WILL BE ISSUED AT 231045Z